createdAt,value
2022-10-07T00:01:04.614Z,6.40
2022-10-07T00:03:33.745Z,6.40
2022-10-07T00:06:03.954Z,6.40
2022-10-07T00:08:32.371Z,6.20
2022-10-07T00:11:10.156Z,6.50
2022-10-07T00:13:43.472Z,6.20
2022-10-07T00:16:13.961Z,6.30
2022-10-07T00:18:42.530Z,6.40
2022-10-07T00:21:12.396Z,6.20
2022-10-07T00:23:42.553Z,6.20
2022-10-07T00:26:14.230Z,6.20
2022-10-07T00:28:42.629Z,6.10
2022-10-07T00:31:13.957Z,6.10
2022-10-07T00:33:43.199Z,6.10
2022-10-07T00:36:16.041Z,6.10
2022-10-07T00:38:44.058Z,6.10
2022-10-07T00:41:19.202Z,6.20
2022-10-07T00:47:27.150Z,6.10
2022-10-07T00:49:59.623Z,6.00
2022-10-07T00:52:31.414Z,6.10
2022-10-07T00:55:02.331Z,6.30
2022-10-07T00:57:37.880Z,5.90
2022-10-07T01:00:07.865Z,6.00
2022-10-07T01:02:37.964Z,6.00
2022-10-07T01:05:09.750Z,5.90
2022-10-07T01:07:58.292Z,6.00
2022-10-07T01:10:34.183Z,5.90
2022-10-07T01:13:45.227Z,6.20
2022-10-07T01:16:27.121Z,6.00
2022-10-07T01:19:03.853Z,5.90
2022-10-07T01:21:44.535Z,5.90
2022-10-07T01:24:24.910Z,5.90
2022-10-07T01:26:58.652Z,5.90
2022-10-07T01:29:31.796Z,5.90
2022-10-07T01:32:08.626Z,6.10
2022-10-07T01:34:39.122Z,5.80
2022-10-07T01:37:13.874Z,5.80
2022-10-07T01:39:47.085Z,5.80
2022-10-07T01:42:17.302Z,5.80
2022-10-07T01:44:48.587Z,5.60
2022-10-07T01:47:24.903Z,5.50
2022-10-07T01:49:57.692Z,5.70
2022-10-07T01:52:44.816Z,5.70
2022-10-07T01:55:41.358Z,6.00
2022-10-07T01:58:25.194Z,5.70
2022-10-07T02:04:25.221Z,5.70
2022-10-07T02:07:01.334Z,5.60
2022-10-07T02:09:35.720Z,5.60
2022-10-07T02:12:12.612Z,5.60
2022-10-07T02:14:46.496Z,5.50
2022-10-07T02:17:19.373Z,5.50
2022-10-07T02:19:56.661Z,5.80
2022-10-07T02:22:32.918Z,5.50
2022-10-07T02:25:01.169Z,5.50
2022-10-07T02:27:36.274Z,5.30
2022-10-07T02:30:18.170Z,5.50
2022-10-07T02:33:05.132Z,5.50
2022-10-07T02:35:47.834Z,5.50
2022-10-07T02:38:23.821Z,5.50
2022-10-07T02:40:59.758Z,5.50
2022-10-07T02:43:32.687Z,5.30
2022-10-07T02:46:08.454Z,5.40
2022-10-07T02:48:49.697Z,5.40
2022-10-07T02:51:28.089Z,5.40
2022-10-07T02:53:57.515Z,5.60
2022-10-07T02:56:28.644Z,5.40
2022-10-07T02:58:59.053Z,5.40
2022-10-07T03:01:33.468Z,5.40
2022-10-07T03:04:02.246Z,5.30
2022-10-07T03:06:30.562Z,5.30
2022-10-07T03:09:00.209Z,5.30
2022-10-07T03:11:34.199Z,5.60
2022-10-07T03:14:22.412Z,5.30
2022-10-07T03:17:06.618Z,5.30
2022-10-07T03:19:35.700Z,5.40
2022-10-07T03:22:03.960Z,5.30
2022-10-07T03:24:32.640Z,5.30
2022-10-07T03:27:00.836Z,5.20
2022-10-07T03:29:33.115Z,5.20
2022-10-07T03:32:03.285Z,5.20
2022-10-07T03:34:31.914Z,5.20
2022-10-07T03:37:00.232Z,5.20
2022-10-07T03:39:28.288Z,5.10
2022-10-07T03:41:57.506Z,5.50
2022-10-07T03:44:25.618Z,5.20
2022-10-07T03:46:53.985Z,5.20
2022-10-07T03:49:32.891Z,5.20
2022-10-07T03:52:01.229Z,5.20
2022-10-07T03:54:29.559Z,5.20
2022-10-07T03:56:57.636Z,5.20
2022-10-07T03:59:33.250Z,5.00
2022-10-07T04:02:01.529Z,5.10
2022-10-07T04:04:31.055Z,5.20
2022-10-07T04:06:59.094Z,5.20
2022-10-07T04:09:27.220Z,5.20
2022-10-07T04:11:55.638Z,5.10
2022-10-07T04:14:30.557Z,5.10
2022-10-07T04:16:58.743Z,5.00
2022-10-07T04:19:27.791Z,5.40
2022-10-07T04:21:57.800Z,5.10
2022-10-07T04:24:28.796Z,5.40
2022-10-07T04:26:56.850Z,5.00
2022-10-07T04:29:25.156Z,5.40
2022-10-07T04:31:53.224Z,5.10
2022-10-07T04:34:21.277Z,5.10
2022-10-07T04:36:49.377Z,5.10
2022-10-07T04:39:18.900Z,5.10
2022-10-07T04:41:46.950Z,5.10
2022-10-07T04:44:15.014Z,5.00
2022-10-07T04:46:43.055Z,5.20
2022-10-07T04:49:11.109Z,5.00
2022-10-07T04:51:39.114Z,5.00
2022-10-07T04:54:08.276Z,5.00
2022-10-07T04:56:37.592Z,5.00
2022-10-07T04:59:05.791Z,4.90
2022-10-07T05:01:33.831Z,5.00
2022-10-07T05:04:02.006Z,5.00
2022-10-07T05:06:29.988Z,5.00
2022-10-07T05:08:57.962Z,5.00
2022-10-07T05:11:26.294Z,5.00
2022-10-07T05:13:55.614Z,4.90
2022-10-07T05:16:23.682Z,5.00
2022-10-07T05:18:54.401Z,5.00
2022-10-07T05:21:22.311Z,5.00
2022-10-07T05:23:50.290Z,5.00
2022-10-07T05:26:18.339Z,5.00
2022-10-07T05:28:48.620Z,5.00
2022-10-07T05:31:18.204Z,5.00
2022-10-07T05:33:46.209Z,5.00
2022-10-07T05:36:14.193Z,4.90
2022-10-07T05:38:42.260Z,5.00
2022-10-07T05:41:12.279Z,5.00
2022-10-07T05:43:43.186Z,5.00
2022-10-07T05:46:13.209Z,5.00
2022-10-07T05:48:46.045Z,5.00
2022-10-07T05:51:14.091Z,5.00
2022-10-07T05:53:43.014Z,5.00
2022-10-07T05:56:13.280Z,5.10
2022-10-07T05:58:41.285Z,5.10
2022-10-07T06:01:14.743Z,5.10
2022-10-07T06:03:44.617Z,5.10
2022-10-07T06:06:12.571Z,5.10
2022-10-07T06:08:40.570Z,5.20
2022-10-07T06:11:37.066Z,5.20
2022-10-07T06:14:06.241Z,5.20
2022-10-07T06:16:34.388Z,5.20
2022-10-07T06:19:03.863Z,5.50
2022-10-07T06:21:31.899Z,5.30
2022-10-07T06:23:59.934Z,5.40
2022-10-07T06:26:28.321Z,5.40
2022-10-07T06:28:56.315Z,5.50
2022-10-07T06:31:25.645Z,5.50
2022-10-07T06:33:54.172Z,5.60
2022-10-07T06:36:23.774Z,5.70
2022-10-07T06:38:53.384Z,5.80
2022-10-07T06:41:24.526Z,5.80
2022-10-07T06:43:56.916Z,5.90
2022-10-07T06:46:25.088Z,6.00
2022-10-07T06:48:53.123Z,6.10
2022-10-07T06:51:24.104Z,6.30
2022-10-07T06:53:54.045Z,6.50
2022-10-07T06:56:22.042Z,6.60
2022-10-07T06:58:50.392Z,6.70
2022-10-07T07:01:18.769Z,6.90
2022-10-07T07:03:46.850Z,7.00
2022-10-07T07:06:14.891Z,7.20
2022-10-07T07:08:46.005Z,7.30
2022-10-07T07:11:33.302Z,7.50
2022-10-07T07:14:02.306Z,7.70
2022-10-07T07:16:31.178Z,7.80
2022-10-07T07:19:01.820Z,8.10
2022-10-07T07:21:30.558Z,8.20
2022-10-07T07:24:00.361Z,8.40
2022-10-07T07:26:29.373Z,8.50
2022-10-07T07:28:59.907Z,8.80
2022-10-07T07:31:29.509Z,9.00
2022-10-07T07:34:00.671Z,9.20
2022-10-07T07:36:30.279Z,9.50
2022-10-07T07:39:01.789Z,9.70
2022-10-07T07:41:32.133Z,10.00
2022-10-07T07:44:03.545Z,10.20
2022-10-07T07:46:36.077Z,10.60
2022-10-07T07:49:04.453Z,10.90
2022-10-07T07:51:34.727Z,11.30
2022-10-07T07:54:05.039Z,11.60
2022-10-07T07:56:33.213Z,11.90
2022-10-07T07:59:01.420Z,12.20
2022-10-07T08:01:32.152Z,12.60
2022-10-07T08:04:01.007Z,13.00
2022-10-07T08:06:31.258Z,13.30
2022-10-07T08:08:59.626Z,13.70
2022-10-07T08:11:29.707Z,14.10
2022-10-07T08:13:57.904Z,14.70
2022-10-07T08:16:28.723Z,15.10
2022-10-07T08:18:58.235Z,15.60
2022-10-07T08:21:28.157Z,16.10
2022-10-07T08:23:57.410Z,16.80
2022-10-07T08:26:25.527Z,17.60
2022-10-07T08:28:54.910Z,18.30
2022-10-07T08:31:23.148Z,18.80
2022-10-07T08:33:51.530Z,19.10
2022-10-07T08:36:22.578Z,19.50
2022-10-07T08:38:51.584Z,19.80
2022-10-07T08:41:37.955Z,20.30
2022-10-07T08:44:18.970Z,20.80
2022-10-07T08:47:10.685Z,21.00
2022-10-07T08:49:48.266Z,21.50
2022-10-07T08:52:40.971Z,21.90
2022-10-07T08:55:18.691Z,22.30
2022-10-07T08:58:11.731Z,22.60
2022-10-07T09:00:49.172Z,23.00
2022-10-07T09:03:35.828Z,23.30
2022-10-07T09:06:09.492Z,23.40
2022-10-07T09:08:42.075Z,23.60
2022-10-07T09:11:18.227Z,23.90
2022-10-07T09:13:51.559Z,24.30
2022-10-07T09:16:24.156Z,24.40
2022-10-07T09:18:56.073Z,24.40
2022-10-07T09:21:32.934Z,24.60
2022-10-07T09:24:14.204Z,24.80
2022-10-07T09:26:42.350Z,25.00
2022-10-07T09:29:11.056Z,25.00
2022-10-07T09:31:40.930Z,25.20
2022-10-07T09:34:19.687Z,25.00
2022-10-07T09:37:10.829Z,25.10
2022-10-07T09:39:39.262Z,25.20
2022-10-07T09:42:11.083Z,25.50
2022-10-07T09:44:40.128Z,25.80
2022-10-07T09:47:21.884Z,25.60
2022-10-07T09:49:51.469Z,25.80
2022-10-07T09:52:23.289Z,25.70
2022-10-07T09:54:52.953Z,26.00
2022-10-07T09:57:27.085Z,25.80
2022-10-07T10:00:18.337Z,25.70
2022-10-07T10:02:51.717Z,26.10
2022-10-07T10:05:27.935Z,26.30
2022-10-07T10:07:59.931Z,26.10
2022-10-07T10:10:30.142Z,25.90
2022-10-07T10:13:00.026Z,26.10
2022-10-07T10:15:37.921Z,26.20
2022-10-07T10:18:31.689Z,25.90
2022-10-07T10:21:17.252Z,25.70
2022-10-07T10:23:47.481Z,25.30
2022-10-07T10:26:42.042Z,25.20
2022-10-07T10:29:42.040Z,24.70
2022-10-07T10:32:42.494Z,24.10
2022-10-07T10:35:17.022Z,23.50
2022-10-07T10:37:58.261Z,23.20
2022-10-07T10:40:33.957Z,22.80
2022-10-07T10:43:18.066Z,22.30
2022-10-07T10:45:54.461Z,21.60
2022-10-07T10:48:30.695Z,21.00
2022-10-07T10:51:07.190Z,20.30
2022-10-07T10:53:43.982Z,19.90
2022-10-07T10:56:23.993Z,19.70
2022-10-07T10:59:03.282Z,19.40
2022-10-07T11:01:36.461Z,19.10
2022-10-07T11:04:26.063Z,18.70
2022-10-07T11:07:00.333Z,18.50
2022-10-07T11:09:38.661Z,18.20
2022-10-07T11:12:19.657Z,18.00
2022-10-07T11:14:56.912Z,17.90
2022-10-07T11:17:31.527Z,17.70
2022-10-07T11:20:13.089Z,17.70
2022-10-07T11:22:48.972Z,17.60
2022-10-07T11:25:25.625Z,17.50
2022-10-07T11:27:55.481Z,17.50
2022-10-07T11:30:24.537Z,17.50
2022-10-07T11:32:57.840Z,17.50
2022-10-07T11:35:31.218Z,17.40
2022-10-07T11:38:07.469Z,17.40
2022-10-07T11:40:41.840Z,17.40
2022-10-07T11:43:16.770Z,17.40
2022-10-07T11:45:52.052Z,17.50
2022-10-07T11:48:24.298Z,17.50
2022-10-07T11:50:56.267Z,17.50
2022-10-07T11:53:28.710Z,17.50
2022-10-07T11:56:05.773Z,17.50
2022-10-07T11:58:37.205Z,17.50
2022-10-07T12:01:47.918Z,17.50
2022-10-07T12:04:39.410Z,17.60
2022-10-07T12:07:39.966Z,17.60
2022-10-07T12:10:27.654Z,17.50
2022-10-07T12:12:58.811Z,17.50
2022-10-07T12:15:33.022Z,17.50
2022-10-07T12:18:27.709Z,17.60
2022-10-07T12:21:07.210Z,17.60
2022-10-07T12:23:45.974Z,17.60
2022-10-07T12:26:52.381Z,17.60
2022-10-07T12:29:27.613Z,17.60
2022-10-07T12:31:55.920Z,17.60
2022-10-07T12:34:30.371Z,17.70
2022-10-07T12:37:31.731Z,17.70
2022-10-07T12:40:00.506Z,17.70
2022-10-07T12:42:30.762Z,17.70
2022-10-07T12:45:00.584Z,17.70
2022-10-07T12:47:30.034Z,17.70
2022-10-07T12:50:01.654Z,17.60
2022-10-07T12:52:42.188Z,17.70
2022-10-07T12:55:15.437Z,17.70
2022-10-07T12:57:50.845Z,17.60
2022-10-07T13:00:20.168Z,17.60
2022-10-07T13:03:22.062Z,17.60
2022-10-07T13:06:18.518Z,17.60
2022-10-07T13:09:16.117Z,17.60
2022-10-07T13:12:09.141Z,17.60
2022-10-07T13:14:45.097Z,17.60
2022-10-07T13:17:36.744Z,17.60
2022-10-07T13:20:25.814Z,17.50
2022-10-07T13:22:55.301Z,17.40
2022-10-07T13:25:23.725Z,17.40
2022-10-07T13:27:55.732Z,17.40
2022-10-07T13:30:38.673Z,17.40
2022-10-07T13:33:22.052Z,17.40
2022-10-07T13:35:50.940Z,17.40
2022-10-07T13:38:23.207Z,17.30
2022-10-07T13:40:57.675Z,17.30
2022-10-07T13:43:29.266Z,17.30
2022-10-07T13:45:59.666Z,17.30
2022-10-07T13:48:31.323Z,17.30
2022-10-07T13:51:01.690Z,17.30
2022-10-07T13:53:31.928Z,17.40
2022-10-07T13:56:20.124Z,17.40
2022-10-07T13:58:48.415Z,17.30
2022-10-07T14:01:18.529Z,17.20
2022-10-07T14:04:10.679Z,17.20
2022-10-07T14:06:49.626Z,17.10
2022-10-07T14:09:19.526Z,17.00
2022-10-07T14:11:48.771Z,17.00
2022-10-07T14:14:20.756Z,17.00
2022-10-07T14:16:56.943Z,17.00
2022-10-07T14:19:25.223Z,17.00
2022-10-07T14:21:53.548Z,16.90
2022-10-07T14:24:21.911Z,16.80
2022-10-07T14:26:50.158Z,16.80
2022-10-07T14:29:38.752Z,16.60
2022-10-07T14:32:39.392Z,16.50
2022-10-07T14:35:20.651Z,16.40
2022-10-07T14:37:49.390Z,16.30
2022-10-07T14:40:20.246Z,16.20
2022-10-07T14:43:03.370Z,16.20
2022-10-07T14:45:34.144Z,16.10
2022-10-07T14:48:13.417Z,16.00
2022-10-07T14:50:42.137Z,16.00
2022-10-07T14:53:16.210Z,15.90
2022-10-07T14:55:44.654Z,15.80
2022-10-07T14:58:12.986Z,15.80
2022-10-07T15:00:43.575Z,15.70
2022-10-07T15:03:13.909Z,15.60
2022-10-07T15:05:44.323Z,15.60
2022-10-07T15:08:13.410Z,15.50
2022-10-07T15:10:56.167Z,15.40
2022-10-07T15:13:28.439Z,15.40
2022-10-07T15:16:04.979Z,15.30
2022-10-07T15:18:36.364Z,15.30
2022-10-07T15:21:07.325Z,15.20
2022-10-07T15:23:35.653Z,15.20
2022-10-07T15:26:03.805Z,15.10
2022-10-07T15:28:33.236Z,15.00
2022-10-07T15:31:05.588Z,15.00
2022-10-07T15:33:36.232Z,15.00
2022-10-07T15:36:08.076Z,14.90
2022-10-07T15:38:36.300Z,14.90
2022-10-07T15:41:07.731Z,14.80
2022-10-07T15:43:36.652Z,14.70
2022-10-07T15:46:04.840Z,14.60
2022-10-07T15:48:34.469Z,14.60
2022-10-07T15:51:04.870Z,14.50
2022-10-07T15:53:34.885Z,14.50
2022-10-07T15:56:05.289Z,14.40
2022-10-07T15:58:33.554Z,14.40
2022-10-07T16:01:03.607Z,14.40
2022-10-07T16:03:39.600Z,14.40
2022-10-07T16:06:10.284Z,14.30
2022-10-07T16:08:38.931Z,14.30
2022-10-07T16:11:09.170Z,14.20
2022-10-07T16:13:37.845Z,14.10
2022-10-07T16:16:11.131Z,14.00
2022-10-07T16:18:42.433Z,13.90
2022-10-07T16:21:12.527Z,13.80
2022-10-07T16:23:45.341Z,13.80
2022-10-07T16:26:15.737Z,13.70
2022-10-07T16:29:02.563Z,13.60
2022-10-07T16:31:31.264Z,13.50
2022-10-07T16:34:00.962Z,13.40
2022-10-07T16:36:29.014Z,13.30
2022-10-07T16:39:00.175Z,13.20
2022-10-07T16:41:28.318Z,13.10
2022-10-07T16:43:58.085Z,13.00
2022-10-07T16:46:26.587Z,12.80
2022-10-07T16:48:55.038Z,12.80
2022-10-07T16:51:25.976Z,12.70
2022-10-07T16:53:56.879Z,12.50
2022-10-07T16:56:25.018Z,12.40
2022-10-07T16:58:56.445Z,12.30
2022-10-07T17:01:25.675Z,12.30
2022-10-07T17:03:55.187Z,12.20
2022-10-07T17:06:25.661Z,12.10
2022-10-07T17:08:55.556Z,12.00
2022-10-07T17:11:31.095Z,11.90
2022-10-07T17:14:00.616Z,11.80
2022-10-07T17:16:29.974Z,11.70
2022-10-07T17:18:58.511Z,11.70
2022-10-07T17:21:28.094Z,11.70
2022-10-07T17:23:58.308Z,11.60
2022-10-07T17:26:27.677Z,11.50
2022-10-07T17:29:01.194Z,11.40
2022-10-07T17:31:30.043Z,11.30
2022-10-07T17:33:59.265Z,11.30
2022-10-07T17:36:29.092Z,11.20
2022-10-07T17:38:57.655Z,11.10
2022-10-07T17:41:27.529Z,11.00
2022-10-07T17:43:57.188Z,11.00
2022-10-07T17:46:28.854Z,11.00
2022-10-07T17:48:58.450Z,10.90
2022-10-07T17:51:29.394Z,10.80
2022-10-07T17:53:59.783Z,10.80
2022-10-07T17:56:29.350Z,10.80
2022-10-07T17:58:57.905Z,10.70
2022-10-07T18:01:28.111Z,10.60
2022-10-07T18:03:58.060Z,10.60
2022-10-07T18:06:28.780Z,10.50
2022-10-07T18:08:58.909Z,10.50
2022-10-07T18:11:47.491Z,10.40
2022-10-07T18:14:33.059Z,10.30
2022-10-07T18:17:05.150Z,10.30
2022-10-07T18:19:36.185Z,10.20
2022-10-07T18:22:05.621Z,10.10
2022-10-07T18:24:33.701Z,10.10
2022-10-07T18:27:02.558Z,10.00
2022-10-07T18:29:33.460Z,10.00
2022-10-07T18:32:02.011Z,9.90
2022-10-07T18:34:30.197Z,9.90
2022-10-07T18:36:58.265Z,9.90
2022-10-07T18:39:29.457Z,9.80
2022-10-07T18:42:02.011Z,9.70
2022-10-07T18:44:33.176Z,9.70
2022-10-07T18:47:01.346Z,9.70
2022-10-07T18:49:29.469Z,9.60
2022-10-07T18:51:57.477Z,9.60
2022-10-07T18:54:26.991Z,9.50
2022-10-07T18:56:55.079Z,9.50
2022-10-07T18:59:23.233Z,9.40
2022-10-07T19:01:51.408Z,9.40
2022-10-07T19:04:20.139Z,9.30
2022-10-07T19:06:48.787Z,9.20
2022-10-07T19:09:18.814Z,9.20
2022-10-07T19:11:48.527Z,9.10
2022-10-07T19:14:16.247Z,9.10
2022-10-07T19:16:46.010Z,9.10
2022-10-07T19:19:16.935Z,9.10
2022-10-07T19:21:46.281Z,9.00
2022-10-07T19:24:15.065Z,8.90
2022-10-07T19:26:46.289Z,8.90
2022-10-07T19:29:17.978Z,8.90
2022-10-07T19:31:48.612Z,8.90
2022-10-07T19:34:19.972Z,8.80
2022-10-07T19:36:48.779Z,8.80
2022-10-07T19:39:18.572Z,8.80
2022-10-07T19:41:47.488Z,8.80
2022-10-07T19:44:17.010Z,8.70
2022-10-07T19:46:45.257Z,8.70
2022-10-07T19:49:13.627Z,8.60
2022-10-07T19:51:42.195Z,8.60
2022-10-07T19:54:13.003Z,8.60
2022-10-07T19:56:42.155Z,8.50
2022-10-07T19:59:11.839Z,8.50
2022-10-07T20:01:42.984Z,8.50
2022-10-07T20:04:14.225Z,8.40
2022-10-07T20:06:43.225Z,8.40
2022-10-07T20:09:13.651Z,8.40
2022-10-07T20:11:42.389Z,8.30
2022-10-07T20:14:12.340Z,8.30
2022-10-07T20:16:41.839Z,8.30
2022-10-07T20:19:15.409Z,8.30
2022-10-07T20:21:43.696Z,8.30
2022-10-07T20:24:15.207Z,8.20
2022-10-07T20:26:44.331Z,8.20
2022-10-07T20:29:13.991Z,8.10
2022-10-07T20:31:44.195Z,8.10
2022-10-07T20:34:15.947Z,8.10
2022-10-07T20:36:44.297Z,8.00
2022-10-07T20:39:35.253Z,8.00
2022-10-07T20:42:20.653Z,8.00
2022-10-07T20:44:51.802Z,8.00
2022-10-07T20:47:22.412Z,7.90
2022-10-07T20:49:51.585Z,7.90
2022-10-07T20:52:22.222Z,7.90
2022-10-07T20:54:51.168Z,7.90
2022-10-07T20:57:21.450Z,7.80
2022-10-07T20:59:49.997Z,7.80
2022-10-07T21:02:21.724Z,7.80
2022-10-07T21:04:50.049Z,7.80
2022-10-07T21:07:18.971Z,7.70
2022-10-07T21:09:47.162Z,7.70
2022-10-07T21:12:17.684Z,7.70
2022-10-07T21:14:48.005Z,7.60
2022-10-07T21:17:16.771Z,7.60
2022-10-07T21:19:46.254Z,7.60
2022-10-07T21:22:14.409Z,7.60
2022-10-07T21:24:42.520Z,7.60
2022-10-07T21:27:10.618Z,7.50
2022-10-07T21:29:41.111Z,7.50
2022-10-07T21:32:09.966Z,7.40
2022-10-07T21:34:38.345Z,7.40
2022-10-07T21:37:07.946Z,7.40
2022-10-07T21:39:35.940Z,7.30
2022-10-07T21:42:04.203Z,7.30
2022-10-07T21:44:33.504Z,7.30
2022-10-07T21:47:01.688Z,7.20
2022-10-07T21:49:29.720Z,7.00
2022-10-07T21:51:57.750Z,7.20
2022-10-07T21:54:27.570Z,7.10
2022-10-07T21:56:55.698Z,7.10
2022-10-07T21:59:23.839Z,7.10
2022-10-07T22:01:52.063Z,7.10
2022-10-07T22:04:20.416Z,7.10
2022-10-07T22:07:05.593Z,7.10
2022-10-07T22:09:35.788Z,7.10
2022-10-07T22:12:03.824Z,7.10
2022-10-07T22:14:31.874Z,7.00
2022-10-07T22:16:59.909Z,7.00
2022-10-07T22:19:27.924Z,7.10
2022-10-07T22:21:55.952Z,7.00
2022-10-07T22:24:24.707Z,7.00
2022-10-07T22:26:54.059Z,7.00
2022-10-07T22:29:23.032Z,7.00
2022-10-07T22:31:51.305Z,7.00
2022-10-07T22:34:37.105Z,7.00
2022-10-07T22:37:05.428Z,7.00
2022-10-07T22:39:33.435Z,7.10
2022-10-07T22:42:03.813Z,7.10
2022-10-07T22:44:32.119Z,7.00
2022-10-07T22:47:01.568Z,7.10
2022-10-07T22:49:32.457Z,7.00
2022-10-07T22:52:06.127Z,7.10
2022-10-07T22:54:37.482Z,7.10
2022-10-07T22:57:14.301Z,7.10
2022-10-07T22:59:47.874Z,7.10
2022-10-07T23:02:16.232Z,7.20
2022-10-07T23:04:48.455Z,7.10
2022-10-07T23:07:23.284Z,7.10
2022-10-07T23:09:53.575Z,7.20
2022-10-07T23:12:23.304Z,7.10
2022-10-07T23:14:51.617Z,7.20
2022-10-07T23:17:19.996Z,7.20
2022-10-07T23:19:50.978Z,7.20
2022-10-07T23:22:23.303Z,7.20
2022-10-07T23:24:52.446Z,7.20
2022-10-07T23:27:24.678Z,7.20
2022-10-07T23:29:52.961Z,7.40
2022-10-07T23:32:28.162Z,7.20
2022-10-07T23:34:56.892Z,7.30
2022-10-07T23:37:27.809Z,7.20
2022-10-07T23:39:56.185Z,7.30
2022-10-07T23:42:34.319Z,7.30
2022-10-07T23:45:08.058Z,7.30
2022-10-07T23:47:38.150Z,7.40
2022-10-07T23:50:07.329Z,7.40
2022-10-07T23:52:35.399Z,7.40
2022-10-07T23:55:06.351Z,7.40
2022-10-07T23:57:38.898Z,7.40
